Time;durP1;ratioP1;P1;durP2;ratioP2;P2;SDS_P1;SDS_P2;PMS_P1;PMS_P2;Temp;Humidity;BMP_temperature;BMP_pressure;BME280_temperature;BME280_humidity;BME280_pressure;Samples;Min_cycle;Max_cycle;Signal;HPM_P1;HPM_P2
2022/08/07 00:01:41;;;;;;;0.60;0.60;;;16.80;88.60;;;;;;5075121;28;20820;-79
2022/08/07 00:04:08;;;;;;;0.40;0.40;;;16.80;88.90;;;;;;5075495;28;20449;-79
2022/08/07 00:06:36;;;;;;;0.67;0.50;;;16.80;88.70;;;;;;5075398;28;20453;-79
2022/08/07 00:09:04;;;;;;;1.37;0.57;;;16.80;89.10;;;;;;5075552;28;20437;-79
2022/08/07 00:11:30;;;;;;;0.50;0.40;;;16.70;89.80;;;;;;5075022;28;20457;-79
2022/08/07 00:13:58;;;;;;;0.40;0.30;;;16.70;90.00;;;;;;5075485;28;20460;-79
2022/08/07 00:16:25;;;;;;;0.40;0.30;;;16.60;90.20;;;;;;5075421;28;20442;-79
2022/08/07 00:18:51;;;;;;;0.70;0.40;;;16.60;90.40;;;;;;5075122;28;20473;-79
2022/08/07 00:21:18;;;;;;;0.73;0.40;;;16.60;90.30;;;;;;5074815;28;20449;-79
2022/08/07 00:23:46;;;;;;;0.40;0.40;;;16.60;90.40;;;;;;5075146;28;20817;-79
2022/08/07 00:26:13;;;;;;;0.40;0.40;;;16.50;90.20;;;;;;5075035;28;20440;-79
2022/08/07 00:28:40;;;;;;;0.40;0.30;;;16.50;89.20;;;;;;5074945;28;20453;-79
2022/08/07 00:31:09;;;;;;;0.50;0.40;;;16.50;90.10;;;;;;5075090;28;20469;-79
2022/08/07 00:33:37;;;;;;;3.30;0.80;;;16.50;89.60;;;;;;5074989;28;20455;-79
2022/08/07 00:36:05;;;;;;;0.40;0.40;;;16.40;89.90;;;;;;5075050;28;20437;-79
2022/08/07 00:38:32;;;;;;;0.40;0.40;;;16.40;90.10;;;;;;5074786;28;20445;-79
2022/08/07 00:41:01;;;;;;;0.60;0.57;;;16.40;90.40;;;;;;5074251;28;20865;-79
2022/08/07 00:43:28;;;;;;;0.40;0.40;;;16.30;90.10;;;;;;5074658;28;20448;-79
2022/08/07 00:45:55;;;;;;;0.80;0.50;;;16.30;90.50;;;;;;5074323;28;20945;-79
2022/08/07 00:48:21;;;;;;;0.40;0.30;;;16.30;90.90;;;;;;5074574;28;20445;-79
2022/08/07 00:50:48;;;;;;;0.33;0.30;;;16.20;90.80;;;;;;5074132;28;20991;-79
2022/08/07 00:53:15;;;;;;;1.20;0.47;;;16.20;91.30;;;;;;5074043;28;20457;-79
2022/08/07 00:55:42;;;;;;;0.50;0.50;;;16.20;91.10;;;;;;5074398;28;20536;-79
2022/08/07 00:58:10;;;;;;;0.40;0.40;;;16.20;91.30;;;;;;5074370;28;20448;-79
2022/08/07 01:00:36;;;;;;;0.50;0.40;;;16.20;91.20;;;;;;5074185;28;20489;-79
2022/08/07 01:03:03;;;;;;;0.40;0.33;;;16.10;90.80;;;;;;5074281;28;20449;-79
2022/08/07 01:05:32;;;;;;;4.10;0.60;;;16.00;91.10;;;;;;5074249;28;20448;-79
2022/08/07 01:07:59;;;;;;;0.50;0.50;;;16.00;91.00;;;;;;5074143;28;20453;-79
2022/08/07 01:10:26;;;;;;;0.50;0.40;;;16.00;91.20;;;;;;5073942;28;20480;-79
2022/08/07 01:12:53;;;;;;;0.80;0.40;;;16.00;91.50;;;;;;5074111;28;20456;-79
2022/08/07 01:15:22;;;;;;;0.40;0.40;;;16.00;91.50;;;;;;5073961;28;20531;-79
2022/08/07 01:17:49;;;;;;;0.97;0.80;;;16.00;91.70;;;;;;5073983;28;20466;-79
2022/08/07 01:20:21;;;;;;;0.37;0.33;;;16.00;92.00;;;;;;5073831;28;20488;-79
2022/08/07 01:22:50;;;;;;;0.87;0.77;;;15.90;91.30;;;;;;5073969;28;20459;-79
2022/08/07 01:25:17;;;;;;;0.50;0.50;;;15.90;91.70;;;;;;5074102;28;20456;-79
2022/08/07 01:27:44;;;;;;;0.50;0.50;;;15.90;92.10;;;;;;5073563;28;20944;-79
2022/08/07 01:30:11;;;;;;;0.40;0.40;;;15.90;91.80;;;;;;5073439;28;20976;-79
2022/08/07 01:32:38;;;;;;;0.40;0.37;;;15.90;92.50;;;;;;5074080;28;20448;-79
2022/08/07 01:35:06;;;;;;;0.40;0.40;;;15.90;92.50;;;;;;5073717;28;20453;-79
2022/08/07 01:37:33;;;;;;;0.40;0.40;;;15.90;92.00;;;;;;5073707;28;20449;-79
2022/08/07 01:40:03;;;;;;;0.40;0.40;;;15.90;91.80;;;;;;5073517;28;20491;-79
2022/08/07 01:42:30;;;;;;;0.50;0.40;;;15.90;92.10;;;;;;5073446;28;20485;-79
2022/08/07 01:44:57;;;;;;;0.60;0.60;;;15.90;91.80;;;;;;5073774;28;20453;-79
2022/08/07 01:47:24;;;;;;;0.40;0.40;;;15.90;92.20;;;;;;5073635;28;20472;-79
2022/08/07 01:49:51;;;;;;;0.43;0.40;;;15.90;92.50;;;;;;5073461;28;20488;-79
2022/08/07 01:52:19;;;;;;;0.50;0.50;;;15.90;92.10;;;;;;5073521;28;20440;-79
2022/08/07 01:54:48;;;;;;;0.40;0.33;;;15.90;92.50;;;;;;5073197;28;20449;-79
2022/08/07 01:57:21;;;;;;;0.47;0.37;;;15.90;91.80;;;;;;5073498;28;20445;-79
2022/08/07 01:59:54;;;;;;;1.07;0.50;;;15.80;92.20;;;;;;5073060;28;20468;-79
2022/08/07 02:02:30;;;;;;;2.80;0.60;;;15.80;92.00;;;;;;5073447;28;20436;-79
2022/08/07 02:05:02;;;;;;;0.87;0.50;;;15.80;91.50;;;;;;5072634;28;20464;-79
2022/08/07 02:07:33;;;;;;;2.10;0.43;;;15.80;91.80;;;;;;5073387;28;20433;-79
2022/08/07 02:10:01;;;;;;;0.40;0.40;;;15.80;92.60;;;;;;5073348;28;20453;-79
2022/08/07 02:12:33;;;;;;;0.50;0.50;;;15.90;92.80;;;;;;5073747;28;20441;-79
2022/08/07 02:15:02;;;;;;;0.60;0.50;;;15.80;92.40;;;;;;5073310;28;20438;-79
2022/08/07 02:17:29;;;;;;;0.50;0.40;;;15.80;92.40;;;;;;5074077;28;20444;-79
2022/08/07 02:20:00;;;;;;;0.40;0.40;;;15.80;92.90;;;;;;5073128;28;20484;-79
2022/08/07 02:22:29;;;;;;;0.40;0.40;;;15.80;92.90;;;;;;5073470;28;20448;-79
2022/08/07 02:24:56;;;;;;;1.90;0.40;;;15.80;92.90;;;;;;5072930;28;20425;-79
2022/08/07 02:27:26;;;;;;;0.60;0.40;;;15.80;92.60;;;;;;5073197;28;20441;-79
2022/08/07 02:29:57;;;;;;;0.40;0.30;;;15.80;92.70;;;;;;5073094;28;20491;-79
2022/08/07 02:32:25;;;;;;;0.40;0.40;;;15.80;92.70;;;;;;5073193;28;20429;-79
2022/08/07 02:34:53;;;;;;;0.70;0.70;;;15.80;92.50;;;;;;5073078;28;20437;-79
2022/08/07 02:37:21;;;;;;;0.40;0.40;;;15.70;92.50;;;;;;5072808;28;20441;-79
2022/08/07 02:39:49;;;;;;;0.40;0.40;;;15.70;93.20;;;;;;5072890;28;20492;-79
2022/08/07 02:42:17;;;;;;;4.00;0.60;;;15.70;93.30;;;;;;5072792;28;20492;-79
2022/08/07 02:44:46;;;;;;;0.40;0.37;;;15.70;93.20;;;;;;5072986;28;20448;-79
2022/08/07 02:47:15;;;;;;;0.40;0.40;;;15.60;93.10;;;;;;5072948;28;20441;-79
2022/08/07 02:49:42;;;;;;;0.80;0.50;;;15.60;93.70;;;;;;5072841;28;20436;-79
2022/08/07 02:52:13;;;;;;;0.83;0.43;;;15.60;93.70;;;;;;5072578;28;20822;-79
2022/08/07 02:54:42;;;;;;;0.50;0.40;;;15.60;93.60;;;;;;5072928;28;20440;-79
2022/08/07 02:57:13;;;;;;;0.40;0.40;;;15.60;93.80;;;;;;5073014;28;20460;-80
2022/08/07 02:59:44;;;;;;;0.47;0.40;;;15.50;94.20;;;;;;5072728;28;20784;-79
2022/08/07 03:02:12;;;;;;;0.50;0.40;;;15.50;94.50;;;;;;5072870;28;20465;-79
2022/08/07 03:04:42;;;;;;;0.40;0.40;;;15.50;94.70;;;;;;5072796;28;20471;-79
2022/08/07 03:07:10;;;;;;;0.63;0.57;;;15.50;94.00;;;;;;5072770;28;20448;-79
2022/08/07 03:09:37;;;;;;;0.60;0.40;;;15.50;94.20;;;;;;5072705;28;20502;-79
2022/08/07 03:12:05;;;;;;;0.40;0.40;;;15.50;94.20;;;;;;5072499;28;20437;-79
2022/08/07 03:14:35;;;;;;;0.40;0.40;;;15.40;94.10;;;;;;5072693;28;20444;-79
2022/08/07 03:17:02;;;;;;;0.40;0.40;;;15.40;94.60;;;;;;5074340;28;20506;-79
2022/08/07 03:19:30;;;;;;;1.07;0.40;;;15.40;94.60;;;;;;5076148;28;20452;-79
2022/08/07 03:21:59;;;;;;;0.97;0.50;;;15.40;94.80;;;;;;5076426;28;20445;-79
2022/08/07 03:24:26;;;;;;;0.40;0.40;;;15.40;95.50;;;;;;5076245;28;20450;-79
2022/08/07 03:26:53;;;;;;;0.57;0.40;;;15.40;95.60;;;;;;5075875;28;20444;-79
2022/08/07 03:29:21;;;;;;;0.40;0.40;;;15.40;95.80;;;;;;5076169;28;20436;-79
2022/08/07 03:31:51;;;;;;;0.40;0.40;;;15.30;96.00;;;;;;5076000;28;20476;-79
2022/08/07 03:34:19;;;;;;;1.00;0.50;;;15.30;96.10;;;;;;5075794;28;20440;-79
2022/08/07 03:36:46;;;;;;;0.63;0.40;;;15.30;95.50;;;;;;5075645;28;20810;-79
2022/08/07 03:39:17;;;;;;;3.33;0.50;;;15.30;95.00;;;;;;5076080;28;20452;-79
2022/08/07 03:41:44;;;;;;;0.40;0.40;;;15.30;95.40;;;;;;5075555;28;20481;-79
2022/08/07 03:44:11;;;;;;;0.40;0.40;;;15.30;95.40;;;;;;5075741;28;20433;-79
2022/08/07 03:46:39;;;;;;;0.50;0.50;;;15.30;95.60;;;;;;5076052;28;20439;-79
2022/08/07 03:49:08;;;;;;;0.50;0.43;;;15.20;96.20;;;;;;5075940;28;20441;-79
2022/08/07 03:51:35;;;;;;;0.40;0.33;;;15.20;96.10;;;;;;5075387;28;20968;-79
2022/08/07 03:54:02;;;;;;;1.53;0.50;;;15.10;96.40;;;;;;5075662;28;20457;-79
2022/08/07 03:56:33;;;;;;;0.40;0.30;;;15.10;96.00;;;;;;5075617;28;20483;-79
2022/08/07 03:59:01;;;;;;;0.50;0.43;;;15.10;96.30;;;;;;5075311;28;20437;-79
2022/08/07 04:01:29;;;;;;;0.50;0.43;;;15.00;96.50;;;;;;5075435;28;20488;-79
2022/08/07 04:03:56;;;;;;;1.10;0.40;;;15.00;96.40;;;;;;5075514;28;20808;-79
2022/08/07 04:06:23;;;;;;;0.50;0.50;;;14.90;96.40;;;;;;5076128;28;20456;-79
2022/08/07 04:08:52;;;;;;;0.37;0.33;;;14.90;96.00;;;;;;5075382;28;20455;-79
2022/08/07 04:11:18;;;;;;;0.50;0.30;;;14.90;96.50;;;;;;5075262;28;20940;-79
2022/08/07 04:13:47;;;;;;;0.40;0.40;;;14.90;96.40;;;;;;5075743;28;20457;-79
2022/08/07 04:16:14;;;;;;;0.40;0.40;;;14.90;96.50;;;;;;5075282;28;20445;-79
2022/08/07 04:18:41;;;;;;;0.90;0.70;;;14.80;96.60;;;;;;5075347;28;20460;-79
2022/08/07 04:21:08;;;;;;;0.40;0.40;;;14.80;96.60;;;;;;5074741;28;20996;-79
2022/08/07 04:23:35;;;;;;;0.40;0.40;;;14.80;96.70;;;;;;5074795;28;20452;-79
2022/08/07 04:26:02;;;;;;;0.50;0.43;;;14.80;97.00;;;;;;5075067;28;20452;-79
2022/08/07 04:28:29;;;;;;;0.70;0.43;;;14.80;97.00;;;;;;5074228;28;20443;-79
2022/08/07 04:30:57;;;;;;;0.57;0.40;;;14.70;97.30;;;;;;5075124;28;20469;-79
2022/08/07 04:33:25;;;;;;;0.40;0.40;;;14.80;97.90;;;;;;5074926;28;20453;-79
2022/08/07 04:35:52;;;;;;;0.70;0.70;;;14.80;97.60;;;;;;5074869;28;20445;-79
2022/08/07 04:38:19;;;;;;;0.60;0.60;;;14.80;97.60;;;;;;5074839;28;20456;-80
2022/08/07 04:40:47;;;;;;;0.60;0.50;;;14.80;97.90;;;;;;5074630;28;20492;-79
2022/08/07 04:43:16;;;;;;;0.60;0.50;;;14.80;98.10;;;;;;5074747;28;20405;-79
2022/08/07 04:45:52;;;;;;;0.47;0.47;;;14.90;98.10;;;;;;5074919;28;20441;-79
2022/08/07 04:48:27;;;;;;;1.13;0.40;;;14.90;98.30;;;;;;5074618;28;20432;-79
2022/08/07 04:51:02;;;;;;;1.77;0.50;;;15.00;98.20;;;;;;5074175;28;20807;-79
2022/08/07 04:53:35;;;;;;;1.67;0.47;;;15.00;98.70;;;;;;5074239;28;20437;-79
2022/08/07 04:56:10;;;;;;;0.50;0.50;;;15.10;99.00;;;;;;5074791;28;20417;-79
2022/08/07 04:58:43;;;;;;;0.90;0.50;;;15.10;99.00;;;;;;5074406;28;20405;-79
2022/08/07 05:01:17;;;;;;;0.50;0.50;;;15.10;99.30;;;;;;5074238;28;20515;-79
2022/08/07 05:03:52;;;;;;;1.03;0.60;;;15.10;99.20;;;;;;5074323;28;20444;-79
2022/08/07 05:06:25;;;;;;;0.60;0.37;;;15.20;99.90;;;;;;5074290;28;20490;-79
2022/08/07 05:08:59;;;;;;;0.50;0.40;;;15.20;99.90;;;;;;5074222;28;20433;-79
2022/08/07 05:11:32;;;;;;;0.40;0.40;;;15.30;99.90;;;;;;5073854;28;20475;-79
2022/08/07 05:14:03;;;;;;;0.50;0.50;;;15.30;99.90;;;;;;5073853;28;20916;-79
2022/08/07 05:16:32;;;;;;;0.40;0.30;;;15.30;99.90;;;;;;5074117;28;20437;-79
2022/08/07 05:19:04;;;;;;;0.43;0.40;;;15.40;99.90;;;;;;5074447;28;20815;-79
2022/08/07 05:21:32;;;;;;;0.70;0.70;;;15.40;99.90;;;;;;5073848;28;20508;-79
2022/08/07 05:24:02;;;;;;;1.07;0.40;;;15.50;99.90;;;;;;5073604;28;20445;-79
2022/08/07 05:26:32;;;;;;;2.70;0.50;;;15.50;99.50;;;;;;5073905;28;20456;-79
2022/08/07 05:29:01;;;;;;;0.50;0.50;;;15.50;99.40;;;;;;5073579;28;20939;-79
2022/08/07 05:31:32;;;;;;;0.40;0.40;;;15.50;99.60;;;;;;5073720;28;20465;-79
2022/08/07 05:34:02;;;;;;;0.60;0.53;;;15.60;99.90;;;;;;5073809;28;20441;-79
2022/08/07 05:36:30;;;;;;;0.40;0.40;;;15.60;99.90;;;;;;5074028;28;20502;-79
2022/08/07 05:38:58;;;;;;;0.70;0.70;;;15.70;99.90;;;;;;5073828;28;20556;-79
2022/08/07 05:41:26;;;;;;;0.50;0.40;;;15.70;99.90;;;;;;5073035;28;21022;-79
2022/08/07 05:43:55;;;;;;;0.80;0.40;;;15.80;99.90;;;;;;5073550;28;20503;-79
2022/08/07 05:46:23;;;;;;;0.47;0.47;;;15.80;99.90;;;;;;5073577;28;20790;-79
2022/08/07 05:48:51;;;;;;;0.60;0.60;;;15.90;99.90;;;;;;5073571;28;20453;-79
2022/08/07 05:51:21;;;;;;;1.03;0.50;;;16.00;99.90;;;;;;5073149;28;21014;-79
2022/08/07 05:53:48;;;;;;;1.00;0.60;;;16.00;99.90;;;;;;5073527;28;20838;-79
2022/08/07 05:56:17;;;;;;;0.40;0.40;;;16.10;99.90;;;;;;5073757;28;20452;-79
2022/08/07 05:58:46;;;;;;;2.20;0.60;;;16.10;99.90;;;;;;5073287;28;20794;-79
2022/08/07 06:01:14;;;;;;;0.60;0.50;;;16.30;99.90;;;;;;5072980;28;21003;-79
2022/08/07 06:03:47;;;;;;;1.93;0.50;;;16.40;99.90;;;;;;5073643;28;20437;-79
2022/08/07 06:06:14;;;;;;;0.50;0.50;;;16.60;99.90;;;;;;5073074;28;20441;-79
2022/08/07 06:08:43;;;;;;;0.63;0.40;;;16.70;99.90;;;;;;5073339;28;20460;-79
2022/08/07 06:11:11;;;;;;;0.57;0.50;;;16.90;99.90;;;;;;5073476;28;20464;-79
2022/08/07 06:13:38;;;;;;;0.90;0.60;;;17.10;99.90;;;;;;5073547;28;20467;-79
2022/08/07 06:16:07;;;;;;;1.60;0.50;;;17.40;99.90;;;;;;5073298;28;20453;-79
2022/08/07 06:18:34;;;;;;;1.07;0.60;;;17.60;99.90;;;;;;5072979;28;20445;-79
2022/08/07 06:21:02;;;;;;;1.80;0.83;;;17.80;99.90;;;;;;5072937;28;20843;-79
2022/08/07 06:23:29;;;;;;;1.53;0.50;;;17.90;99.90;;;;;;5072965;28;20433;-79
2022/08/07 06:25:58;;;;;;;0.50;0.50;;;18.20;99.90;;;;;;5072939;28;20802;-79
2022/08/07 06:28:25;;;;;;;1.03;0.70;;;18.40;99.90;;;;;;5073194;28;20472;-79
2022/08/07 06:30:52;;;;;;;0.87;0.80;;;18.70;99.90;;;;;;5072955;28;20861;-79
2022/08/07 06:33:19;;;;;;;1.73;1.20;;;19.00;99.90;;;;;;5072825;28;20990;-79
2022/08/07 06:35:46;;;;;;;0.70;0.70;;;19.20;99.90;;;;;;5073368;28;20449;-79
2022/08/07 06:38:12;;;;;;;0.80;0.80;;;19.30;99.90;;;;;;5073065;28;20444;-79
2022/08/07 06:40:42;;;;;;;1.10;0.97;;;19.50;99.90;;;;;;5072684;28;20475;-79
2022/08/07 06:43:12;;;;;;;1.27;0.87;;;19.60;99.90;;;;;;5072773;28;20913;-79
2022/08/07 06:45:39;;;;;;;0.67;0.60;;;19.70;99.90;;;;;;5072938;28;20444;-79
2022/08/07 06:48:06;;;;;;;2.23;0.70;;;19.90;99.90;;;;;;5073541;28;20473;-79
2022/08/07 06:50:36;;;;;;;1.60;1.20;;;19.90;99.90;;;;;;5072754;28;20480;-79
2022/08/07 06:53:04;;;;;;;0.97;0.90;;;20.00;99.90;;;;;;5076618;28;20448;-79
2022/08/07 06:55:33;;;;;;;1.60;0.80;;;20.10;99.90;;;;;;5077106;28;20905;-79
2022/08/07 06:58:03;;;;;;;0.77;0.77;;;20.20;99.90;;;;;;5076425;28;20455;-79
2022/08/07 07:00:35;;;;;;;1.10;1.00;;;20.40;99.90;;;;;;5076623;28;20460;-79
2022/08/07 07:03:03;;;;;;;1.33;0.70;;;20.60;99.90;;;;;;5077476;28;20804;-79
2022/08/07 07:05:30;;;;;;;1.73;1.07;;;20.60;99.90;;;;;;5076319;28;20819;-79
2022/08/07 07:07:57;;;;;;;0.93;0.80;;;20.70;99.90;;;;;;5076810;28;20449;-79
2022/08/07 07:10:28;;;;;;;1.10;0.70;;;20.80;99.90;;;;;;5076684;28;20829;-79
2022/08/07 07:12:59;;;;;;;1.20;0.83;;;20.90;99.90;;;;;;5076148;28;20861;-79
2022/08/07 07:15:29;;;;;;;0.73;0.73;;;21.10;99.90;;;;;;5076702;28;20429;-79
2022/08/07 07:18:02;;;;;;;1.10;1.03;;;21.20;99.90;;;;;;5076036;28;20948;-79
2022/08/07 07:20:33;;;;;;;0.70;0.70;;;21.20;99.90;;;;;;5076045;28;20449;-79
2022/08/07 07:23:01;;;;;;;1.80;0.97;;;21.30;99.90;;;;;;5076229;28;20469;-79
2022/08/07 07:25:28;;;;;;;4.23;0.90;;;21.50;99.90;;;;;;5076264;28;20788;-79
2022/08/07 07:27:59;;;;;;;0.93;0.83;;;21.60;99.90;;;;;;5076203;28;20445;-79
2022/08/07 07:30:29;;;;;;;1.73;0.87;;;21.70;99.90;;;;;;5076118;28;20464;-79
2022/08/07 07:33:01;;;;;;;0.60;0.60;;;21.80;99.20;;;;;;5076188;28;20421;-79
2022/08/07 07:35:29;;;;;;;1.33;0.87;;;21.80;99.60;;;;;;5076127;28;20420;-79
2022/08/07 07:37:57;;;;;;;0.80;0.80;;;21.80;99.30;;;;;;5076199;28;20445;-79
2022/08/07 07:40:24;;;;;;;0.70;0.57;;;21.80;99.00;;;;;;5075919;28;20468;-79
2022/08/07 07:42:54;;;;;;;0.53;0.53;;;22.00;98.70;;;;;;5075776;28;20491;-80
2022/08/07 07:45:25;;;;;;;1.13;0.57;;;22.10;98.70;;;;;;5075536;28;20816;-79
2022/08/07 07:47:53;;;;;;;1.00;0.80;;;22.10;97.70;;;;;;5075591;28;20436;-79
2022/08/07 07:50:24;;;;;;;0.60;0.53;;;22.30;97.30;;;;;;5075459;28;20463;-79
2022/08/07 07:52:52;;;;;;;0.60;0.50;;;22.20;96.80;;;;;;5075740;28;20451;-79
2022/08/07 07:55:20;;;;;;;3.53;0.73;;;22.20;97.20;;;;;;5075703;28;20429;-80
2022/08/07 07:57:49;;;;;;;0.63;0.63;;;22.40;97.60;;;;;;5075361;28;20449;-80
2022/08/07 08:00:17;;;;;;;0.63;0.57;;;22.60;96.70;;;;;;5075561;28;20463;-79
2022/08/07 08:02:46;;;;;;;0.70;0.70;;;22.80;95.80;;;;;;5074392;28;20983;-80
2022/08/07 08:05:16;;;;;;;0.83;0.50;;;23.00;95.80;;;;;;5075082;28;20801;-79
2022/08/07 08:07:46;;;;;;;0.80;0.60;;;23.20;94.60;;;;;;5075147;28;20959;-80
2022/08/07 08:10:14;;;;;;;0.60;0.60;;;23.30;94.50;;;;;;5075054;28;20474;-80
2022/08/07 08:12:41;;;;;;;0.50;0.50;;;23.50;93.80;;;;;;5075348;28;20452;-80
2022/08/07 08:15:09;;;;;;;0.50;0.50;;;24.00;93.30;;;;;;5075322;28;20453;-80
2022/08/07 08:17:37;;;;;;;0.73;0.50;;;24.40;92.00;;;;;;5075008;28;20451;-80
2022/08/07 08:20:05;;;;;;;0.90;0.63;;;24.60;91.10;;;;;;5075172;28;20228;-79
2022/08/07 08:28:12;;;;;;;0.73;0.57;;;24.20;90.00;;;;;;5075106;28;20186;-80
2022/08/07 08:30:40;;;;;;;0.57;0.57;;;23.90;90.20;;;;;;5074901;28;20460;-80
2022/08/07 08:33:12;;;;;;;0.70;0.70;;;23.70;91.20;;;;;;5075463;28;20449;-79
2022/08/07 08:35:40;;;;;;;0.50;0.50;;;23.60;90.90;;;;;;5074669;28;20186;-80
2022/08/07 08:38:09;;;;;;;0.57;0.37;;;23.60;90.40;;;;;;5074772;28;20932;-80
2022/08/07 08:40:40;;;;;;;0.90;0.53;;;23.70;88.20;;;;;;5074581;28;20471;-81
2022/08/07 08:43:14;;;;;;;0.50;0.50;;;23.60;86.40;;;;;;5074896;28;20472;-80
2022/08/07 08:45:46;;;;;;;0.53;0.53;;;23.60;86.60;;;;;;5074445;28;20802;-80
2022/08/07 08:48:22;;;;;;;0.80;0.60;;;23.70;88.60;;;;;;5074626;28;20435;-80
2022/08/07 08:50:55;;;;;;;0.40;0.40;;;23.90;86.90;;;;;;5074451;28;20464;-81
2022/08/07 08:53:30;;;;;;;0.40;0.40;;;24.00;86.90;;;;;;5074609;28;20194;-80
2022/08/07 08:56:02;;;;;;;0.60;0.50;;;24.20;86.30;;;;;;5074209;28;20919;-80
2022/08/07 08:58:35;;;;;;;0.70;0.70;;;24.10;85.10;;;;;;5074227;28;20638;-81
2022/08/07 09:01:08;;;;;;;0.80;0.50;;;23.90;86.90;;;;;;5075089;28;20871;-81
2022/08/07 09:03:46;;;;;;;0.50;0.50;;;23.90;85.20;;;;;;5074325;28;20214;-81
2022/08/07 09:06:21;;;;;;;0.70;0.50;;;23.90;86.30;;;;;;5074378;28;20239;-80
2022/08/07 09:08:56;;;;;;;0.60;0.50;;;23.90;85.20;;;;;;5074328;28;20432;-81
2022/08/07 09:11:39;;;;;;;0.60;0.60;;;23.90;86.00;;;;;;5074191;28;20571;-81
2022/08/07 09:14:12;;;;;;;0.50;0.50;;;24.00;86.10;;;;;;5073934;28;20770;-80
2022/08/07 09:16:49;;;;;;;0.70;0.50;;;24.00;85.60;;;;;;5073882;28;20182;-81
2022/08/07 09:19:40;;;;;;;1.37;0.50;;;23.90;85.50;;;;;;5074116;28;20435;-79
2022/08/07 09:22:15;;;;;;;0.50;0.50;;;24.00;84.90;;;;;;5073833;28;20465;-80
2022/08/07 09:24:51;;;;;;;0.50;0.50;;;24.20;83.90;;;;;;5074035;28;20428;-80
2022/08/07 09:27:29;;;;;;;0.50;0.50;;;24.30;84.60;;;;;;5073960;28;20432;-80
2022/08/07 09:30:00;;;;;;;0.83;0.83;;;24.50;86.00;;;;;;5073824;28;20526;-81
2022/08/07 09:32:44;;;;;;;0.70;0.70;;;24.70;85.30;;;;;;5074422;28;20429;-79
2022/08/07 09:35:19;;;;;;;0.50;0.50;;;24.70;83.00;;;;;;5073580;28;20668;-80
2022/08/07 09:37:59;;;;;;;0.57;0.57;;;24.50;83.00;;;;;;5073803;28;20432;-80
2022/08/07 09:40:32;;;;;;;0.50;0.50;;;24.40;83.80;;;;;;5073552;28;20468;-81
2022/08/07 09:43:07;;;;;;;0.83;0.70;;;24.20;85.20;;;;;;5073690;28;20464;-80
2022/08/07 09:45:40;;;;;;;0.50;0.50;;;24.30;83.60;;;;;;5073981;28;20409;-80
2022/08/07 09:48:17;;;;;;;0.50;0.50;;;24.40;84.10;;;;;;5074611;28;20190;-80
2022/08/07 09:50:55;;;;;;;0.63;0.63;;;24.50;85.60;;;;;;5073578;28;20221;-80
2022/08/07 09:53:25;;;;;;;0.50;0.50;;;24.70;85.30;;;;;;5073613;28;20186;-80
2022/08/07 09:56:19;;;;;;;0.50;0.50;;;24.80;83.50;;;;;;5074129;28;20190;-80
2022/08/07 09:59:01;;;;;;;0.63;0.50;;;24.90;82.20;;;;;;5073547;28;20198;-79
2022/08/07 10:01:52;;;;;;;0.50;0.50;;;25.10;76.00;;;;;;5073277;28;20267;-79
2022/08/07 10:04:31;;;;;;;0.40;0.30;;;25.10;76.60;;;;;;5073216;28;20642;-79
2022/08/07 10:07:27;;;;;;;0.70;0.40;;;25.10;73.90;;;;;;5073575;28;20216;-80
2022/08/07 10:10:18;;;;;;;0.83;0.50;;;25.10;71.50;;;;;;5067602;28;20222;-80
2022/08/07 10:13:26;;;;;;;0.50;0.50;;;25.10;73.10;;;;;;5073435;28;20178;-80
2022/08/07 10:16:11;;;;;;;1.98;0.50;;;25.10;71.00;;;;;;5065298;28;20206;-79
2022/08/07 10:19:11;;;;;;;1.05;0.68;;;25.20;70.60;;;;;;5073374;28;20190;-79
2022/08/07 10:21:48;;;;;;;0.50;0.50;;;25.20;70.40;;;;;;5073025;28;20666;-80
2022/08/07 10:24:29;;;;;;;0.50;0.50;;;25.40;70.00;;;;;;5073404;28;20185;-79
2022/08/07 10:27:09;;;;;;;0.50;0.50;;;25.30;69.70;;;;;;5074972;28;20198;-79
2022/08/07 10:29:57;;;;;;;0.60;0.60;;;25.40;69.50;;;;;;5077324;28;20194;-79
2022/08/07 10:33:00;;;;;;;1.15;0.60;;;25.50;69.60;;;;;;5077364;28;20584;-80
2022/08/07 10:35:29;;;;;;;0.43;0.40;;;25.60;69.50;;;;;;5077001;28;20265;-79
2022/08/07 10:38:10;;;;;;;0.57;0.57;;;25.70;68.30;;;;;;5076810;28;20206;-79
2022/08/07 10:40:43;;;;;;;0.50;0.50;;;25.80;68.80;;;;;;5076795;28;20217;-79
2022/08/07 10:43:15;;;;;;;0.50;0.50;;;25.90;65.50;;;;;;5077027;28;20217;-79
2022/08/07 10:45:47;;;;;;;0.30;0.30;;;25.70;65.80;;;;;;5077154;28;20193;-79
2022/08/07 10:48:24;;;;;;;0.63;0.50;;;25.50;65.40;;;;;;5077081;28;20178;-79
2022/08/07 10:50:55;;;;;;;0.50;0.50;;;25.40;65.40;;;;;;5076844;28;20739;-79
2022/08/07 10:53:30;;;;;;;0.50;0.40;;;25.40;66.30;;;;;;5076846;28;20186;-79
2022/08/07 10:56:05;;;;;;;0.45;0.45;;;25.50;63.60;;;;;;5076569;28;20190;-79
2022/08/07 10:58:53;;;;;;;0.43;0.40;;;25.50;64.10;;;;;;5076446;28;20310;-79
2022/08/07 11:01:31;;;;;;;0.57;0.57;;;25.70;62.00;;;;;;5076683;28;20222;-79
2022/08/07 11:04:07;;;;;;;0.52;0.52;;;25.90;62.10;;;;;;5076657;28;20216;-79
2022/08/07 11:06:40;;;;;;;0.90;0.57;;;26.30;62.10;;;;;;5076694;28;20285;-79
2022/08/07 11:09:13;;;;;;;0.47;0.47;;;26.70;59.80;;;;;;5076606;28;20222;-79
2022/08/07 11:11:45;;;;;;;0.50;0.50;;;27.10;58.90;;;;;;5076204;28;20715;-80
2022/08/07 11:14:19;;;;;;;0.80;0.50;;;27.30;57.90;;;;;;5076560;28;20205;-79
2022/08/07 11:16:49;;;;;;;0.50;0.50;;;27.10;58.20;;;;;;5076587;28;20557;-85
2022/08/07 11:19:26;;;;;;;0.60;0.60;;;26.80;57.80;;;;;;5076502;28;20178;-85
2022/08/07 11:22:02;;;;;;;0.45;0.45;;;26.30;58.40;;;;;;5076413;28;20194;-83
2022/08/07 11:24:41;;;;;;;0.70;0.50;;;25.90;58.10;;;;;;5076077;28;20190;-86
2022/08/07 11:27:14;;;;;;;0.52;0.50;;;25.70;58.70;;;;;;5076339;28;20178;-84
2022/08/07 11:29:48;;;;;;;0.50;0.50;;;25.50;58.70;;;;;;5076211;28;20224;-84
2022/08/07 11:32:18;;;;;;;0.50;0.50;;;25.40;58.50;;;;;;5076200;28;20183;-85
2022/08/07 11:34:50;;;;;;;0.50;0.50;;;25.40;57.70;;;;;;5076246;28;20202;-84
2022/08/07 11:37:26;;;;;;;0.50;0.40;;;25.30;58.80;;;;;;5075953;28;20221;-84
2022/08/07 11:40:06;;;;;;;0.50;0.40;;;25.20;57.70;;;;;;5075742;28;20222;-83
2022/08/07 11:42:51;;;;;;;0.45;0.45;;;25.20;58.80;;;;;;5075777;28;20237;-84
2022/08/07 11:45:35;;;;;;;0.60;0.50;;;25.20;60.00;;;;;;5076024;28;20267;-84
2022/08/07 11:48:24;;;;;;;1.23;0.60;;;25.30;56.40;;;;;;5076868;28;20191;-83
2022/08/07 11:51:09;;;;;;;0.40;0.30;;;25.30;58.10;;;;;;5075518;28;20226;-84
2022/08/07 11:53:48;;;;;;;0.50;0.50;;;25.30;58.20;;;;;;5075822;28;20543;-84
2022/08/07 11:56:27;;;;;;;0.45;0.45;;;25.20;57.40;;;;;;5075913;28;20178;-83
2022/08/07 11:59:05;;;;;;;0.50;0.50;;;25.10;59.30;;;;;;5075431;28;20634;-83
2022/08/07 12:01:46;;;;;;;0.70;0.47;;;25.10;59.40;;;;;;5075611;28;20237;-84
2022/08/07 12:04:38;;;;;;;0.40;0.40;;;25.20;59.60;;;;;;5075616;28;20210;-84
2022/08/07 12:07:18;;;;;;;0.40;0.40;;;25.30;59.30;;;;;;5075859;28;20554;-83
2022/08/07 12:09:50;;;;;;;0.60;0.60;;;25.20;57.70;;;;;;5075705;28;20186;-84
2022/08/07 12:12:23;;;;;;;0.50;0.50;;;25.20;58.80;;;;;;5075569;28;20194;-83
2022/08/07 12:14:59;;;;;;;0.68;0.68;;;25.20;58.90;;;;;;5075934;28;20673;-84
2022/08/07 12:17:33;;;;;;;0.60;0.60;;;25.30;59.80;;;;;;5075162;28;20608;-84
2022/08/07 12:20:05;;;;;;;1.08;0.40;;;25.30;58.90;;;;;;5075748;28;20582;-83
2022/08/07 12:22:44;;;;;;;0.75;0.50;;;25.10;58.70;;;;;;5075295;28;20190;-84
2022/08/07 12:28:09;;;;;;;0.50;0.40;;;24.90;60.20;;;;;;5075206;28;20178;-84
2022/08/07 12:30:40;;;;;;;0.40;0.40;;;24.90;59.30;;;;;;5075116;28;20226;-83
2022/08/07 12:33:14;;;;;;;0.57;0.50;;;24.90;59.60;;;;;;5075319;28;20183;-83
2022/08/07 12:35:42;;;;;;;1.38;0.73;;;25.00;59.70;;;;;;5075084;28;20187;-84
2022/08/07 12:38:13;;;;;;;0.40;0.40;;;24.90;59.20;;;;;;5075097;28;20565;-83
2022/08/07 12:40:41;;;;;;;0.40;0.40;;;24.90;59.60;;;;;;5074451;28;20724;-83
2022/08/07 12:43:10;;;;;;;0.50;0.50;;;24.80;60.10;;;;;;5074781;28;20707;-84
2022/08/07 12:45:45;;;;;;;0.50;0.40;;;24.70;59.80;;;;;;5074426;28;20685;-84
2022/08/07 12:48:17;;;;;;;0.73;0.73;;;24.70;60.20;;;;;;5074473;28;20186;-84
2022/08/07 12:50:53;;;;;;;0.70;0.60;;;24.70;60.10;;;;;;5074035;28;20229;-83
2022/08/07 12:53:40;;;;;;;0.40;0.40;;;24.70;60.00;;;;;;5074652;28;20217;-84
2022/08/07 12:56:12;;;;;;;0.50;0.50;;;24.60;60.20;;;;;;5074268;28;20197;-84
2022/08/07 12:58:44;;;;;;;0.50;0.50;;;24.70;60.30;;;;;;5074527;28;20194;-83
2022/08/07 13:01:24;;;;;;;0.50;0.50;;;24.70;60.70;;;;;;5074179;28;20214;-83
2022/08/07 13:04:29;;;;;;;0.45;0.45;;;24.70;60.10;;;;;;5074439;28;20213;-82
2022/08/07 13:07:17;;;;;;;0.40;0.30;;;24.70;60.70;;;;;;5043595;28;20205;-87
2022/08/07 13:10:03;;;;;;;0.53;0.53;;;24.60;61.20;;;;;;5074285;28;20560;-83
2022/08/07 13:12:37;;;;;;;0.50;0.50;;;24.60;60.50;;;;;;5074233;28;20202;-83
2022/08/07 13:15:16;;;;;;;0.50;0.50;;;24.50;61.70;;;;;;5073983;28;20190;-84
2022/08/07 13:17:53;;;;;;;1.10;0.50;;;24.50;61.60;;;;;;5073884;28;20649;-83
2022/08/07 13:20:30;;;;;;;0.40;0.40;;;24.50;60.70;;;;;;5074018;28;20253;-79